Terminal Aerodrome Forecast
Issued by NWS

Home | Current Version | Previous Version | Text Only | Print | Product List | Glossary On
Versions: 1 2 3 4 5 6 7 8 9 10 11 12 13 14 15 16 17 18 19 20 21
000
FTUS46 KLOX 010600 AAB
TAFOXR
TAF AMD
KOXR 010638Z 0107/0206 18015G25KT 3SM RA BR BKN013 OVC060
     FM010700 27008KT 5SM -RA BR SCT015 OVC025
     FM011200 27008KT P6SM VCSH SCT025 OVC035
     FM011500 VRB03KT P6SM SCT025 BKN050
     FM011800 27008KT P6SM SCT030 BKN050
     FM012000 25012KT P6SM SCT030 BKN050
     FM020100 28008KT P6SM SCT050=

USA.gov is the U.S. government's official web portal to all federal, state and local government web resources and services.